createdAt,value
2018-05-11T16:50:38.141Z,3.60
2018-05-11T16:51:38.131Z,3.50
2018-05-11T16:53:31.600Z,3.70
2018-05-11T16:54:32.072Z,3.90
2018-05-11T16:56:26.966Z,3.70
2018-05-11T16:57:26.538Z,3.80
2018-05-11T16:59:19.477Z,3.10
2018-05-11T17:00:20.008Z,3.20
2018-05-11T17:02:13.979Z,4.00
2018-05-11T17:03:13.953Z,4.10
2018-05-11T17:05:09.913Z,3.40
2018-05-11T17:06:08.403Z,3.50
2018-05-11T17:08:02.945Z,3.70
2018-05-11T17:09:02.365Z,3.60
2018-05-11T17:10:56.830Z,3.70
2018-05-11T17:11:56.311Z,4.20
2018-05-11T17:13:51.263Z,3.60
2018-05-11T17:14:50.771Z,4.10
2018-05-11T17:16:45.719Z,3.30
2018-05-11T17:17:45.228Z,3.70
2018-05-11T17:19:39.707Z,3.50
2018-05-11T17:20:39.663Z,3.30
2018-05-11T17:22:36.180Z,3.50
2018-05-11T17:23:34.177Z,3.90
2018-05-11T17:25:28.627Z,4.30
2018-05-11T17:26:28.620Z,3.80
2018-05-11T17:28:25.107Z,3.40
2018-05-11T17:29:24.610Z,3.80
2018-05-11T17:31:21.580Z,4.40
2018-05-11T17:32:20.539Z,3.80
2018-05-11T17:34:19.531Z,3.60
2018-05-11T17:35:16.493Z,3.90
2018-05-11T17:37:13.957Z,3.70
2018-05-11T17:38:12.456Z,3.40
2018-05-11T17:40:05.930Z,4.20
2018-05-11T17:41:05.925Z,4.20
2018-05-11T17:43:01.910Z,3.90
2018-05-11T17:44:01.878Z,4.70
2018-05-11T17:45:57.858Z,3.60
2018-05-11T17:46:57.856Z,4.00
2018-05-11T17:48:54.819Z,3.70
2018-05-11T17:49:53.816Z,4.40
2018-05-11T17:51:48.307Z,3.90
2018-05-11T17:52:48.331Z,3.80
2018-05-11T17:54:46.256Z,4.00
2018-05-11T17:55:45.260Z,4.90
2018-05-11T17:57:39.224Z,4.20
2018-05-11T17:58:38.726Z,4.10
2018-05-11T18:00:33.204Z,4.10
2018-05-11T18:01:34.190Z,4.10
2018-05-11T18:03:26.702Z,4.80
2018-05-11T18:04:26.661Z,4.80
2018-05-11T18:06:21.148Z,4.60
2018-05-11T18:07:21.115Z,4.40
2018-05-11T18:09:15.563Z,4.00
2018-05-11T18:10:15.621Z,4.20
2018-05-11T18:12:10.115Z,4.00
2018-05-11T18:13:10.052Z,4.50
2018-05-11T18:15:05.002Z,5.20
2018-05-11T18:16:03.503Z,4.10
2018-05-11T18:17:59.908Z,4.10
2018-05-11T18:18:58.028Z,4.40
2018-05-11T18:20:52.954Z,3.90
2018-05-11T18:21:52.414Z,4.00
2018-05-11T18:23:47.404Z,4.70
2018-05-11T18:24:46.850Z,4.00
2018-05-11T18:26:41.833Z,4.20
2018-05-11T18:27:41.387Z,4.40
2018-05-11T18:29:37.796Z,5.00
2018-05-11T18:30:37.305Z,5.00
2018-05-11T18:32:34.768Z,5.10
2018-05-11T18:33:33.852Z,4.30
2018-05-11T18:35:27.223Z,4.30
2018-05-11T18:36:26.697Z,4.40
2018-05-11T18:38:23.167Z,4.20
2018-05-11T18:39:22.665Z,5.00
2018-05-11T18:41:19.131Z,4.00
2018-05-11T18:42:18.577Z,4.10
2018-05-11T18:44:13.606Z,4.10
2018-05-11T18:45:13.035Z,4.40
2018-05-11T18:47:09.017Z,4.20
2018-05-11T18:48:09.008Z,4.50
2018-05-11T18:50:03.452Z,4.40
2018-05-11T18:51:03.456Z,4.30
2018-05-11T18:52:57.094Z,4.90
2018-05-11T18:53:57.021Z,4.40
2018-05-11T18:55:50.416Z,4.70
2018-05-11T18:56:51.401Z,4.70
2018-05-11T18:58:45.378Z,5.10
2018-05-11T18:59:44.875Z,4.60
2018-05-11T19:01:39.357Z,4.50
2018-05-11T19:02:39.310Z,5.10
2018-05-11T19:04:33.739Z,4.40
2018-05-11T19:05:33.771Z,4.60
2018-05-11T19:07:28.239Z,4.80
2018-05-11T19:08:28.220Z,5.40
2018-05-11T19:10:25.186Z,4.80
2018-05-11T19:11:24.203Z,5.00
2018-05-11T19:13:20.160Z,5.00
2018-05-11T19:14:20.640Z,5.50
2018-05-11T19:16:16.091Z,4.50
2018-05-11T19:17:16.605Z,5.40
2018-05-11T19:19:10.565Z,4.80
2018-05-11T19:20:10.581Z,5.00
2018-05-11T19:22:06.034Z,5.20
2018-05-11T19:23:05.036Z,4.90
2018-05-11T19:25:01.506Z,5.10
2018-05-11T19:26:00.980Z,5.00
2018-05-11T19:27:57.535Z,5.00
2018-05-11T19:28:57.432Z,4.80
2018-05-11T19:30:50.917Z,5.50
2018-05-11T19:31:50.421Z,4.80
2018-05-11T19:33:44.834Z,4.60
2018-05-11T19:34:44.827Z,4.80
2018-05-11T19:36:39.278Z,4.80
2018-05-11T19:37:39.316Z,5.10
2018-05-11T19:39:33.754Z,5.10
2018-05-11T19:40:34.733Z,4.50
2018-05-11T19:42:28.193Z,4.50
2018-05-11T19:43:28.184Z,5.00
2018-05-11T19:45:24.171Z,4.90
2018-05-11T19:46:24.659Z,5.00
2018-05-11T19:48:20.150Z,5.50
2018-05-11T19:49:20.107Z,5.50
2018-05-11T19:51:16.028Z,5.00
2018-05-11T19:52:16.029Z,5.30
2018-05-11T19:54:12.002Z,6.10
2018-05-11T19:55:12.039Z,6.10
2018-05-11T19:57:06.479Z,5.00
2018-05-11T19:58:06.484Z,5.60
2018-05-11T20:00:01.431Z,5.20
2018-05-11T20:01:00.934Z,5.10
2018-05-11T20:02:55.383Z,5.30
2018-05-11T20:03:56.879Z,5.60
2018-05-11T20:05:48.872Z,5.40
2018-05-11T20:06:48.849Z,5.20
2018-05-11T20:08:43.819Z,5.70
2018-05-11T20:09:43.342Z,5.40
2018-05-11T20:11:37.743Z,5.90
2018-05-11T20:12:37.765Z,6.30
2018-05-11T20:14:31.198Z,5.20
2018-05-11T20:15:31.233Z,5.40
2018-05-11T20:17:27.225Z,5.80
2018-05-11T20:18:28.175Z,4.90
2018-05-11T20:20:23.152Z,4.80
2018-05-11T20:22:39.133Z,5.30
2018-05-11T20:23:39.125Z,4.80
2018-05-11T20:25:35.066Z,6.30
2018-05-11T20:26:35.065Z,6.00
2018-05-11T20:28:30.526Z,5.40
2018-05-11T20:29:29.567Z,5.20
2018-05-11T20:31:25.030Z,5.40
2018-05-11T20:32:24.043Z,5.40
2018-05-11T20:34:20.483Z,5.20
2018-05-11T20:35:19.970Z,5.00
2018-05-11T20:37:14.467Z,5.30
2018-05-11T20:38:14.942Z,5.80
2018-05-11T20:40:07.890Z,5.50
2018-05-11T20:41:07.917Z,6.00
2018-05-11T20:43:02.337Z,6.20
2018-05-11T20:44:02.303Z,5.30
2018-05-11T20:45:55.769Z,5.90
2018-05-11T20:46:55.780Z,5.60
2018-05-11T20:48:52.237Z,5.30
2018-05-11T20:49:51.221Z,5.70
2018-05-11T20:51:47.210Z,5.80
2018-05-11T20:52:46.201Z,5.50
2018-05-11T20:54:42.172Z,5.40
2018-05-11T20:55:42.193Z,5.70
2018-05-11T20:57:35.702Z,5.60
2018-05-11T20:58:35.637Z,5.50
2018-05-11T21:00:30.068Z,5.70
2018-05-11T21:01:30.086Z,5.40
2018-05-11T21:03:27.049Z,5.40
2018-05-11T21:04:26.045Z,5.70
2018-05-11T21:06:21.000Z,5.40
2018-05-11T21:07:20.499Z,5.70
2018-05-11T21:09:14.956Z,5.60
2018-05-11T21:10:14.942Z,5.50
2018-05-11T21:12:11.409Z,5.90
2018-05-11T21:13:11.409Z,6.00
2018-05-11T21:15:06.897Z,5.80
2018-05-11T21:16:06.875Z,5.50
2018-05-11T21:18:02.322Z,5.50
2018-05-11T21:19:01.329Z,5.60
2018-05-11T21:20:56.724Z,5.70
2018-05-11T21:21:57.325Z,5.20
2018-05-11T21:23:51.225Z,5.40
2018-05-11T21:24:51.214Z,5.10
2018-05-11T21:26:45.659Z,5.40
2018-05-11T21:27:45.695Z,5.50
2018-05-11T21:29:41.690Z,5.10
2018-05-11T21:30:41.652Z,5.30
2018-05-11T21:32:36.576Z,5.10
2018-05-11T21:33:36.107Z,5.70
2018-05-11T21:35:35.552Z,5.40
2018-05-11T21:36:35.070Z,5.60
2018-05-11T21:38:28.625Z,6.50
2018-05-11T21:39:28.635Z,5.80
2018-05-11T21:41:23.591Z,5.40
2018-05-11T21:42:23.050Z,5.70
2018-05-11T21:44:16.543Z,5.20
2018-05-11T21:45:16.511Z,5.00
2018-05-11T21:47:11.966Z,4.90
2018-05-11T21:48:10.983Z,5.40
2018-05-11T21:50:05.933Z,5.20
2018-05-11T21:51:05.427Z,5.30
2018-05-11T21:53:03.897Z,5.20
2018-05-11T21:54:03.382Z,4.80
2018-05-11T21:55:57.842Z,5.40
2018-05-11T21:56:57.842Z,5.30
2018-05-11T21:58:51.540Z,5.70
2018-05-11T21:59:52.293Z,5.70
2018-05-11T22:01:46.005Z,5.80
2018-05-11T22:02:45.989Z,6.40
2018-05-11T22:04:40.456Z,6.50
2018-05-11T22:05:40.982Z,6.30
2018-05-11T22:07:34.895Z,5.60
2018-05-11T22:08:34.893Z,5.80
2018-05-11T22:10:31.864Z,5.80
2018-05-11T22:11:30.853Z,5.70
2018-05-11T22:13:24.350Z,5.50
2018-05-11T22:14:26.337Z,5.80
2018-05-11T22:16:19.267Z,5.40
2018-05-11T22:17:18.769Z,5.40
2018-05-11T22:19:13.718Z,5.50
2018-05-11T22:20:13.212Z,5.90
2018-05-11T22:22:12.168Z,5.60
2018-05-11T22:23:11.667Z,5.40
2018-05-11T22:25:06.135Z,5.60
2018-05-11T22:26:06.116Z,6.00
2018-05-11T22:28:01.577Z,5.50
2018-05-11T22:29:01.545Z,5.30
2018-05-11T22:30:55.968Z,5.00
2018-05-11T22:31:55.999Z,5.50
2018-05-11T22:33:51.974Z,8.10
2018-05-11T22:34:51.933Z,7.50
2018-05-11T22:36:47.913Z,5.50
2018-05-11T22:37:48.886Z,5.80
2018-05-11T22:39:43.883Z,5.60
2018-05-11T22:40:43.844Z,5.60
2018-05-11T22:42:38.322Z,5.50
2018-05-11T22:43:38.286Z,5.20
2018-05-11T22:45:34.764Z,5.30
2018-05-11T22:46:32.734Z,5.40
2018-05-11T22:48:27.215Z,5.60
2018-05-11T22:49:27.707Z,5.50
2018-05-11T22:51:22.128Z,5.40
2018-05-11T22:52:21.586Z,5.50
2018-05-11T22:54:15.550Z,5.80
2018-05-11T22:55:15.029Z,5.90
2018-05-11T22:57:11.003Z,5.50
2018-05-11T22:58:10.986Z,5.60
2018-05-11T23:00:07.923Z,5.60
2018-05-11T23:01:07.003Z,5.40
2018-05-11T23:03:00.387Z,5.60
2018-05-11T23:04:00.404Z,5.70
2018-05-11T23:05:56.393Z,5.60
2018-05-11T23:06:56.405Z,5.70
2018-05-11T23:08:51.419Z,5.80
2018-05-11T23:09:50.855Z,5.80
2018-05-11T23:11:45.227Z,5.70
2018-05-11T23:12:44.286Z,5.90
2018-05-11T23:14:40.231Z,5.60
2018-05-11T23:15:40.755Z,5.50
2018-05-11T23:17:36.216Z,5.80
2018-05-11T23:18:36.180Z,5.90
2018-05-11T23:20:32.644Z,6.10
2018-05-11T23:21:31.161Z,6.20
2018-05-11T23:23:26.107Z,6.00
2018-05-11T23:24:25.119Z,6.70
2018-05-11T23:26:18.563Z,6.00
2018-05-11T23:27:18.548Z,5.60
2018-05-11T23:29:13.001Z,5.80
2018-05-11T23:30:12.994Z,6.10
2018-05-11T23:32:09.461Z,6.10
2018-05-11T23:33:08.951Z,5.70
2018-05-11T23:35:03.503Z,6.10
2018-05-11T23:36:03.404Z,5.30
2018-05-11T23:37:59.878Z,5.50
2018-05-11T23:38:59.349Z,5.40
2018-05-11T23:40:52.823Z,6.00
2018-05-11T23:41:53.321Z,5.40
2018-05-11T23:43:47.259Z,5.40
2018-05-11T23:44:47.254Z,5.40
2018-05-11T23:46:43.223Z,5.60
2018-05-11T23:47:43.201Z,5.60
2018-05-11T23:49:37.674Z,5.50
2018-05-11T23:50:38.156Z,5.40
2018-05-11T23:52:32.097Z,5.40
2018-05-11T23:53:32.131Z,5.90
2018-05-11T23:55:25.588Z,5.70
2018-05-11T23:56:26.090Z,5.70
2018-05-11T23:58:21.519Z,5.30
2018-05-11T23:59:20.521Z,6.10
